sensor_id;sensor_type;location;lat;lon;timestamp;P1;durP1;ratioP1;P2;durP2;ratioP2
62588;SDS011;58504;48.770;9.148;2023-04-16T00:00:06;0.50;;;0.50;;
62588;SDS011;58504;48.770;9.148;2023-04-16T00:02:34;0.30;;;0.30;;
62588;SDS011;58504;48.770;9.148;2023-04-16T00:05:01;0.30;;;0.30;;
62588;SDS011;58504;48.770;9.148;2023-04-16T00:07:28;0.40;;;0.40;;
62588;SDS011;58504;48.770;9.148;2023-04-16T00:09:55;0.30;;;0.30;;
62588;SDS011;58504;48.770;9.148;2023-04-16T00:12:21;0.30;;;0.30;;
62588;SDS011;58504;48.770;9.148;2023-04-16T00:14:48;0.28;;;0.28;;
62588;SDS011;58504;48.770;9.148;2023-04-16T00:17:15;0.45;;;0.45;;
62588;SDS011;58504;48.770;9.148;2023-04-16T00:19:43;0.40;;;0.40;;
62588;SDS011;58504;48.770;9.148;2023-04-16T00:22:10;0.55;;;0.47;;
62588;SDS011;58504;48.770;9.148;2023-04-16T00:24:37;0.30;;;0.30;;
62588;SDS011;58504;48.770;9.148;2023-04-16T00:27:03;0.30;;;0.30;;
62588;SDS011;58504;48.770;9.148;2023-04-16T00:29:31;0.30;;;0.30;;
62588;SDS011;58504;48.770;9.148;2023-04-16T00:31:59;0.60;;;0.60;;
62588;SDS011;58504;48.770;9.148;2023-04-16T00:34:25;0.40;;;0.40;;
62588;SDS011;58504;48.770;9.148;2023-04-16T00:36:54;0.50;;;0.50;;
62588;SDS011;58504;48.770;9.148;2023-04-16T00:39:20;0.70;;;0.70;;
62588;SDS011;58504;48.770;9.148;2023-04-16T00:41:47;0.57;;;0.57;;
62588;SDS011;58504;48.770;9.148;2023-04-16T00:44:14;0.30;;;0.30;;
62588;SDS011;58504;48.770;9.148;2023-04-16T00:46:41;0.50;;;0.50;;
62588;SDS011;58504;48.770;9.148;2023-04-16T00:49:08;0.50;;;0.50;;
62588;SDS011;58504;48.770;9.148;2023-04-16T00:51:35;0.55;;;0.55;;
62588;SDS011;58504;48.770;9.148;2023-04-16T00:54:03;0.30;;;0.30;;
62588;SDS011;58504;48.770;9.148;2023-04-16T00:56:32;0.30;;;0.30;;
62588;SDS011;58504;48.770;9.148;2023-04-16T00:59:00;0.28;;;0.28;;
62588;SDS011;58504;48.770;9.148;2023-04-16T01:01:27;0.40;;;0.40;;
62588;SDS011;58504;48.770;9.148;2023-04-16T01:03:54;0.38;;;0.38;;
62588;SDS011;58504;48.770;9.148;2023-04-16T01:06:21;0.52;;;0.52;;
62588;SDS011;58504;48.770;9.148;2023-04-16T01:08:47;0.35;;;0.35;;
62588;SDS011;58504;48.770;9.148;2023-04-16T01:11:16;0.20;;;0.20;;
62588;SDS011;58504;48.770;9.148;2023-04-16T01:13:42;0.40;;;0.40;;
62588;SDS011;58504;48.770;9.148;2023-04-16T01:16:10;0.40;;;0.40;;
62588;SDS011;58504;48.770;9.148;2023-04-16T01:18:37;0.40;;;0.40;;
62588;SDS011;58504;48.770;9.148;2023-04-16T01:21:05;0.20;;;0.20;;
62588;SDS011;58504;48.770;9.148;2023-04-16T01:23:32;0.30;;;0.30;;
62588;SDS011;58504;48.770;9.148;2023-04-16T01:25:59;0.40;;;0.40;;
62588;SDS011;58504;48.770;9.148;2023-04-16T01:28:26;0.20;;;0.20;;
62588;SDS011;58504;48.770;9.148;2023-04-16T01:30:53;0.43;;;0.40;;
62588;SDS011;58504;48.770;9.148;2023-04-16T01:33:19;0.40;;;0.40;;
62588;SDS011;58504;48.770;9.148;2023-04-16T01:35:46;0.38;;;0.38;;
62588;SDS011;58504;48.770;9.148;2023-04-16T01:38:15;0.38;;;0.38;;
62588;SDS011;58504;48.770;9.148;2023-04-16T01:40:42;0.43;;;0.43;;
62588;SDS011;58504;48.770;9.148;2023-04-16T01:43:09;0.45;;;0.25;;
62588;SDS011;58504;48.770;9.148;2023-04-16T01:45:35;0.38;;;0.38;;
62588;SDS011;58504;48.770;9.148;2023-04-16T01:48:02;0.38;;;0.38;;
62588;SDS011;58504;48.770;9.148;2023-04-16T01:50:29;0.40;;;0.40;;
62588;SDS011;58504;48.770;9.148;2023-04-16T01:52:56;0.40;;;0.40;;
62588;SDS011;58504;48.770;9.148;2023-04-16T01:55:24;0.30;;;0.30;;
62588;SDS011;58504;48.770;9.148;2023-04-16T01:57:51;0.40;;;0.40;;
62588;SDS011;58504;48.770;9.148;2023-04-16T02:00:18;0.20;;;0.20;;
62588;SDS011;58504;48.770;9.148;2023-04-16T02:02:45;0.30;;;0.30;;
62588;SDS011;58504;48.770;9.148;2023-04-16T02:05:13;0.30;;;0.30;;
62588;SDS011;58504;48.770;9.148;2023-04-16T02:07:39;0.30;;;0.30;;
62588;SDS011;58504;48.770;9.148;2023-04-16T02:10:07;0.30;;;0.30;;
62588;SDS011;58504;48.770;9.148;2023-04-16T02:12:36;0.40;;;0.40;;
62588;SDS011;58504;48.770;9.148;2023-04-16T02:15:03;0.28;;;0.28;;
62588;SDS011;58504;48.770;9.148;2023-04-16T02:17:30;0.38;;;0.38;;
62588;SDS011;58504;48.770;9.148;2023-04-16T02:19:57;0.52;;;0.47;;
62588;SDS011;58504;48.770;9.148;2023-04-16T02:22:26;0.30;;;0.30;;
62588;SDS011;58504;48.770;9.148;2023-04-16T02:24:53;0.30;;;0.30;;
62588;SDS011;58504;48.770;9.148;2023-04-16T02:27:19;0.30;;;0.30;;
62588;SDS011;58504;48.770;9.148;2023-04-16T02:29:47;0.30;;;0.30;;
62588;SDS011;58504;48.770;9.148;2023-04-16T02:32:14;0.22;;;0.22;;
62588;SDS011;58504;48.770;9.148;2023-04-16T02:34:41;0.30;;;0.30;;
62588;SDS011;58504;48.770;9.148;2023-04-16T02:37:08;0.35;;;0.35;;
62588;SDS011;58504;48.770;9.148;2023-04-16T02:39:34;0.28;;;0.28;;
62588;SDS011;58504;48.770;9.148;2023-04-16T02:42:01;0.47;;;0.47;;
62588;SDS011;58504;48.770;9.148;2023-04-16T02:44:28;0.38;;;0.38;;
62588;SDS011;58504;48.770;9.148;2023-04-16T02:46:56;0.30;;;0.30;;
62588;SDS011;58504;48.770;9.148;2023-04-16T02:49:23;0.22;;;0.22;;
62588;SDS011;58504;48.770;9.148;2023-04-16T02:51:49;0.32;;;0.32;;
62588;SDS011;58504;48.770;9.148;2023-04-16T02:54:16;0.40;;;0.40;;
62588;SDS011;58504;48.770;9.148;2023-04-16T02:56:43;0.30;;;0.30;;
62588;SDS011;58504;48.770;9.148;2023-04-16T02:59:09;0.30;;;0.30;;
62588;SDS011;58504;48.770;9.148;2023-04-16T03:01:36;0.40;;;0.40;;
62588;SDS011;58504;48.770;9.148;2023-04-16T03:04:04;0.30;;;0.30;;
62588;SDS011;58504;48.770;9.148;2023-04-16T03:06:31;0.63;;;0.30;;
62588;SDS011;58504;48.770;9.148;2023-04-16T03:08:58;0.40;;;0.40;;
62588;SDS011;58504;48.770;9.148;2023-04-16T03:11:25;0.40;;;0.40;;
62588;SDS011;58504;48.770;9.148;2023-04-16T03:13:51;0.20;;;0.20;;
62588;SDS011;58504;48.770;9.148;2023-04-16T03:16:18;0.40;;;0.40;;
62588;SDS011;58504;48.770;9.148;2023-04-16T03:18:45;0.20;;;0.20;;
62588;SDS011;58504;48.770;9.148;2023-04-16T03:21:13;0.25;;;0.25;;
62588;SDS011;58504;48.770;9.148;2023-04-16T03:23:40;0.25;;;0.25;;
62588;SDS011;58504;48.770;9.148;2023-04-16T03:26:06;0.30;;;0.30;;
62588;SDS011;58504;48.770;9.148;2023-04-16T03:28:33;0.30;;;0.30;;
62588;SDS011;58504;48.770;9.148;2023-04-16T03:31:00;0.30;;;0.30;;
62588;SDS011;58504;48.770;9.148;2023-04-16T03:33:27;0.40;;;0.40;;
62588;SDS011;58504;48.770;9.148;2023-04-16T03:35:54;0.30;;;0.30;;
62588;SDS011;58504;48.770;9.148;2023-04-16T03:38:23;0.30;;;0.30;;
62588;SDS011;58504;48.770;9.148;2023-04-16T03:40:50;0.47;;;0.47;;
62588;SDS011;58504;48.770;9.148;2023-04-16T03:43:17;0.40;;;0.40;;
62588;SDS011;58504;48.770;9.148;2023-04-16T03:45:44;0.30;;;0.30;;
62588;SDS011;58504;48.770;9.148;2023-04-16T03:48:11;0.40;;;0.40;;
62588;SDS011;58504;48.770;9.148;2023-04-16T03:50:38;0.40;;;0.40;;
62588;SDS011;58504;48.770;9.148;2023-04-16T03:53:05;0.30;;;0.30;;
62588;SDS011;58504;48.770;9.148;2023-04-16T03:55:33;0.32;;;0.32;;
62588;SDS011;58504;48.770;9.148;2023-04-16T03:58:00;0.30;;;0.30;;
62588;SDS011;58504;48.770;9.148;2023-04-16T04:00:27;0.65;;;0.50;;
62588;SDS011;58504;48.770;9.148;2023-04-16T04:02:54;0.35;;;0.35;;
62588;SDS011;58504;48.770;9.148;2023-04-16T04:05:21;0.30;;;0.30;;
62588;SDS011;58504;48.770;9.148;2023-04-16T04:07:47;0.40;;;0.40;;
62588;SDS011;58504;48.770;9.148;2023-04-16T04:10:14;0.30;;;0.30;;
62588;SDS011;58504;48.770;9.148;2023-04-16T04:12:43;0.50;;;0.50;;
62588;SDS011;58504;48.770;9.148;2023-04-16T04:15:10;0.30;;;0.30;;
62588;SDS011;58504;48.770;9.148;2023-04-16T04:17:37;0.40;;;0.40;;
62588;SDS011;58504;48.770;9.148;2023-04-16T04:20:04;0.40;;;0.40;;
62588;SDS011;58504;48.770;9.148;2023-04-16T04:22:31;0.30;;;0.30;;
62588;SDS011;58504;48.770;9.148;2023-04-16T04:24:58;0.50;;;0.50;;
62588;SDS011;58504;48.770;9.148;2023-04-16T04:27:25;0.30;;;0.30;;
62588;SDS011;58504;48.770;9.148;2023-04-16T04:29:53;0.43;;;0.43;;
62588;SDS011;58504;48.770;9.148;2023-04-16T04:32:20;0.25;;;0.25;;
62588;SDS011;58504;48.770;9.148;2023-04-16T04:34:47;0.38;;;0.38;;
62588;SDS011;58504;48.770;9.148;2023-04-16T04:37:13;0.32;;;0.32;;
62588;SDS011;58504;48.770;9.148;2023-04-16T04:39:40;0.40;;;0.40;;
62588;SDS011;58504;48.770;9.148;2023-04-16T04:42:07;0.30;;;0.30;;
62588;SDS011;58504;48.770;9.148;2023-04-16T04:44:34;0.30;;;0.30;;
62588;SDS011;58504;48.770;9.148;2023-04-16T04:47:02;0.38;;;0.38;;
62588;SDS011;58504;48.770;9.148;2023-04-16T04:49:29;0.38;;;0.38;;
62588;SDS011;58504;48.770;9.148;2023-04-16T04:51:56;0.20;;;0.20;;
62588;SDS011;58504;48.770;9.148;2023-04-16T04:54:22;0.32;;;0.32;;
62588;SDS011;58504;48.770;9.148;2023-04-16T04:56:49;0.25;;;0.20;;
62588;SDS011;58504;48.770;9.148;2023-04-16T04:59:16;0.40;;;0.40;;
62588;SDS011;58504;48.770;9.148;2023-04-16T05:01:43;0.13;;;0.13;;
62588;SDS011;58504;48.770;9.148;2023-04-16T05:04:11;0.35;;;0.35;;
62588;SDS011;58504;48.770;9.148;2023-04-16T05:06:38;0.30;;;0.30;;
62588;SDS011;58504;48.770;9.148;2023-04-16T05:09:05;0.43;;;0.43;;
62588;SDS011;58504;48.770;9.148;2023-04-16T05:11:35;0.22;;;0.22;;
62588;SDS011;58504;48.770;9.148;2023-04-16T05:14:02;0.30;;;0.30;;
62588;SDS011;58504;48.770;9.148;2023-04-16T05:16:29;0.30;;;0.30;;
62588;SDS011;58504;48.770;9.148;2023-04-16T05:18:56;0.68;;;0.40;;
62588;SDS011;58504;48.770;9.148;2023-04-16T05:21:24;0.20;;;0.20;;
62588;SDS011;58504;48.770;9.148;2023-04-16T05:23:51;0.13;;;0.13;;
62588;SDS011;58504;48.770;9.148;2023-04-16T05:26:18;0.43;;;0.43;;
62588;SDS011;58504;48.770;9.148;2023-04-16T05:28:45;0.30;;;0.30;;
62588;SDS011;58504;48.770;9.148;2023-04-16T05:31:12;0.40;;;0.40;;
62588;SDS011;58504;48.770;9.148;2023-04-16T05:33:38;0.30;;;0.30;;
62588;SDS011;58504;48.770;9.148;2023-04-16T05:36:05;0.25;;;0.25;;
62588;SDS011;58504;48.770;9.148;2023-04-16T05:38:33;0.32;;;0.32;;
62588;SDS011;58504;48.770;9.148;2023-04-16T05:41:00;0.20;;;0.20;;
62588;SDS011;58504;48.770;9.148;2023-04-16T05:43:27;0.30;;;0.30;;
62588;SDS011;58504;48.770;9.148;2023-04-16T05:45:54;0.22;;;0.22;;
62588;SDS011;58504;48.770;9.148;2023-04-16T05:48:20;0.40;;;0.40;;
62588;SDS011;58504;48.770;9.148;2023-04-16T05:50:48;0.20;;;0.20;;
62588;SDS011;58504;48.770;9.148;2023-04-16T05:53:15;0.40;;;0.38;;
62588;SDS011;58504;48.770;9.148;2023-04-16T05:55:44;0.15;;;0.15;;
62588;SDS011;58504;48.770;9.148;2023-04-16T05:58:11;0.35;;;0.35;;
62588;SDS011;58504;48.770;9.148;2023-04-16T06:00:38;0.40;;;0.40;;
62588;SDS011;58504;48.770;9.148;2023-04-16T06:03:05;0.38;;;0.38;;
62588;SDS011;58504;48.770;9.148;2023-04-16T06:05:32;0.57;;;0.57;;
62588;SDS011;58504;48.770;9.148;2023-04-16T06:07:58;0.38;;;0.38;;
62588;SDS011;58504;48.770;9.148;2023-04-16T06:10:25;0.17;;;0.17;;
62588;SDS011;58504;48.770;9.148;2023-04-16T06:12:53;0.45;;;0.45;;
62588;SDS011;58504;48.770;9.148;2023-04-16T06:15:20;0.32;;;0.32;;
62588;SDS011;58504;48.770;9.148;2023-04-16T06:17:47;0.32;;;0.32;;
62588;SDS011;58504;48.770;9.148;2023-04-16T06:20:14;0.30;;;0.30;;
62588;SDS011;58504;48.770;9.148;2023-04-16T06:22:41;0.63;;;0.63;;
62588;SDS011;58504;48.770;9.148;2023-04-16T06:25:08;0.45;;;0.45;;
62588;SDS011;58504;48.770;9.148;2023-04-16T06:27:35;0.60;;;0.60;;
62588;SDS011;58504;48.770;9.148;2023-04-16T06:30:05;0.50;;;0.50;;
62588;SDS011;58504;48.770;9.148;2023-04-16T06:32:37;0.70;;;0.70;;
62588;SDS011;58504;48.770;9.148;2023-04-16T06:35:04;0.50;;;0.50;;
62588;SDS011;58504;48.770;9.148;2023-04-16T06:37:31;0.43;;;0.43;;
62588;SDS011;58504;48.770;9.148;2023-04-16T06:39:58;0.30;;;0.30;;
62588;SDS011;58504;48.770;9.148;2023-04-16T06:42:25;0.75;;;0.57;;
62588;SDS011;58504;48.770;9.148;2023-04-16T06:44:52;0.22;;;0.22;;
62588;SDS011;58504;48.770;9.148;2023-04-16T06:47:20;0.55;;;0.55;;
62588;SDS011;58504;48.770;9.148;2023-04-16T06:49:47;0.30;;;0.30;;
62588;SDS011;58504;48.770;9.148;2023-04-16T06:52:13;0.60;;;0.60;;
62588;SDS011;58504;48.770;9.148;2023-04-16T06:54:40;0.50;;;0.50;;
62588;SDS011;58504;48.770;9.148;2023-04-16T06:57:07;0.50;;;0.50;;
62588;SDS011;58504;48.770;9.148;2023-04-16T06:59:34;0.60;;;0.60;;
62588;SDS011;58504;48.770;9.148;2023-04-16T07:02:00;0.68;;;0.68;;
62588;SDS011;58504;48.770;9.148;2023-04-16T07:04:29;0.50;;;0.50;;
62588;SDS011;58504;48.770;9.148;2023-04-16T07:06:55;0.50;;;0.50;;
62588;SDS011;58504;48.770;9.148;2023-04-16T07:09:22;0.60;;;0.60;;
62588;SDS011;58504;48.770;9.148;2023-04-16T07:11:50;0.70;;;0.70;;
62588;SDS011;58504;48.770;9.148;2023-04-16T07:14:17;0.45;;;0.45;;
62588;SDS011;58504;48.770;9.148;2023-04-16T07:16:44;0.70;;;0.70;;
62588;SDS011;58504;48.770;9.148;2023-04-16T07:19:10;0.77;;;0.77;;
62588;SDS011;58504;48.770;9.148;2023-04-16T07:21:39;0.50;;;0.50;;
62588;SDS011;58504;48.770;9.148;2023-04-16T07:24:07;0.63;;;0.63;;
62588;SDS011;58504;48.770;9.148;2023-04-16T07:26:34;0.70;;;0.70;;
62588;SDS011;58504;48.770;9.148;2023-04-16T07:29:01;0.57;;;0.57;;
62588;SDS011;58504;48.770;9.148;2023-04-16T07:31:28;0.60;;;0.60;;
62588;SDS011;58504;48.770;9.148;2023-04-16T07:33:55;0.80;;;0.80;;
62588;SDS011;58504;48.770;9.148;2023-04-16T07:36:21;0.60;;;0.60;;
62588;SDS011;58504;48.770;9.148;2023-04-16T07:38:49;0.73;;;0.73;;
62588;SDS011;58504;48.770;9.148;2023-04-16T07:41:16;0.63;;;0.63;;
62588;SDS011;58504;48.770;9.148;2023-04-16T07:43:43;0.60;;;0.60;;
62588;SDS011;58504;48.770;9.148;2023-04-16T07:46:10;0.60;;;0.60;;
62588;SDS011;58504;48.770;9.148;2023-04-16T07:48:36;0.57;;;0.57;;
62588;SDS011;58504;48.770;9.148;2023-04-16T07:51:03;0.50;;;0.50;;
62588;SDS011;58504;48.770;9.148;2023-04-16T07:53:30;0.80;;;0.77;;
62588;SDS011;58504;48.770;9.148;2023-04-16T07:55:58;0.60;;;0.60;;
62588;SDS011;58504;48.770;9.148;2023-04-16T07:58:25;0.50;;;0.50;;
62588;SDS011;58504;48.770;9.148;2023-04-16T08:00:52;0.70;;;0.70;;
62588;SDS011;58504;48.770;9.148;2023-04-16T08:03:18;0.68;;;0.68;;
62588;SDS011;58504;48.770;9.148;2023-04-16T08:05:45;0.50;;;0.50;;
62588;SDS011;58504;48.770;9.148;2023-04-16T08:08:12;0.70;;;0.70;;
62588;SDS011;58504;48.770;9.148;2023-04-16T08:10:39;0.65;;;0.65;;
62588;SDS011;58504;48.770;9.148;2023-04-16T08:13:07;0.65;;;0.65;;
62588;SDS011;58504;48.770;9.148;2023-04-16T08:15:33;0.75;;;0.75;;
62588;SDS011;58504;48.770;9.148;2023-04-16T08:18:00;0.60;;;0.60;;
62588;SDS011;58504;48.770;9.148;2023-04-16T08:20:29;0.70;;;0.70;;
62588;SDS011;58504;48.770;9.148;2023-04-16T08:22:56;0.52;;;0.52;;
62588;SDS011;58504;48.770;9.148;2023-04-16T08:25:23;0.70;;;0.70;;
62588;SDS011;58504;48.770;9.148;2023-04-16T08:27:50;0.60;;;0.60;;
62588;SDS011;58504;48.770;9.148;2023-04-16T08:30:18;0.88;;;0.88;;
62588;SDS011;58504;48.770;9.148;2023-04-16T08:32:45;0.70;;;0.70;;
62588;SDS011;58504;48.770;9.148;2023-04-16T08:35:12;0.70;;;0.70;;
62588;SDS011;58504;48.770;9.148;2023-04-16T08:37:39;0.73;;;0.73;;
62588;SDS011;58504;48.770;9.148;2023-04-16T08:40:06;0.70;;;0.70;;
62588;SDS011;58504;48.770;9.148;2023-04-16T08:42:36;0.60;;;0.57;;
62588;SDS011;58504;48.770;9.148;2023-04-16T08:45:11;0.60;;;0.60;;
62588;SDS011;58504;48.770;9.148;2023-04-16T08:47:41;0.50;;;0.50;;
62588;SDS011;58504;48.770;9.148;2023-04-16T08:50:11;0.65;;;0.65;;
62588;SDS011;58504;48.770;9.148;2023-04-16T08:52:42;0.60;;;0.60;;
62588;SDS011;58504;48.770;9.148;2023-04-16T08:55:15;0.55;;;0.55;;
62588;SDS011;58504;48.770;9.148;2023-04-16T08:57:46;0.80;;;0.80;;
62588;SDS011;58504;48.770;9.148;2023-04-16T09:00:17;0.60;;;0.60;;
62588;SDS011;58504;48.770;9.148;2023-04-16T09:02:46;0.80;;;0.80;;
62588;SDS011;58504;48.770;9.148;2023-04-16T09:05:14;0.63;;;0.63;;
62588;SDS011;58504;48.770;9.148;2023-04-16T09:07:43;0.60;;;0.60;;
62588;SDS011;58504;48.770;9.148;2023-04-16T09:10:10;0.70;;;0.70;;
62588;SDS011;58504;48.770;9.148;2023-04-16T09:12:38;0.47;;;0.47;;
62588;SDS011;58504;48.770;9.148;2023-04-16T09:15:06;0.70;;;0.70;;
62588;SDS011;58504;48.770;9.148;2023-04-16T09:17:36;0.70;;;0.70;;
62588;SDS011;58504;48.770;9.148;2023-04-16T09:20:05;0.57;;;0.57;;
62588;SDS011;58504;48.770;9.148;2023-04-16T09:22:35;0.50;;;0.50;;
62588;SDS011;58504;48.770;9.148;2023-04-16T09:25:02;0.77;;;0.77;;
62588;SDS011;58504;48.770;9.148;2023-04-16T09:27:29;0.90;;;0.90;;
62588;SDS011;58504;48.770;9.148;2023-04-16T09:29:56;0.70;;;0.70;;
62588;SDS011;58504;48.770;9.148;2023-04-16T09:32:24;1.10;;;1.00;;
62588;SDS011;58504;48.770;9.148;2023-04-16T09:34:52;0.85;;;0.85;;
62588;SDS011;58504;48.770;9.148;2023-04-16T09:37:21;1.00;;;1.00;;
62588;SDS011;58504;48.770;9.148;2023-04-16T09:39:52;1.08;;;1.08;;
62588;SDS011;58504;48.770;9.148;2023-04-16T09:42:20;0.80;;;0.80;;
62588;SDS011;58504;48.770;9.148;2023-04-16T09:44:48;0.77;;;0.77;;
62588;SDS011;58504;48.770;9.148;2023-04-16T09:47:16;0.82;;;0.82;;
62588;SDS011;58504;48.770;9.148;2023-04-16T09:49:43;0.93;;;0.93;;
62588;SDS011;58504;48.770;9.148;2023-04-16T09:52:11;1.15;;;1.15;;
62588;SDS011;58504;48.770;9.148;2023-04-16T09:54:45;0.80;;;0.80;;
62588;SDS011;58504;48.770;9.148;2023-04-16T09:57:13;0.60;;;0.60;;
62588;SDS011;58504;48.770;9.148;2023-04-16T09:59:44;0.57;;;0.57;;
62588;SDS011;58504;48.770;9.148;2023-04-16T10:02:11;0.75;;;0.75;;
62588;SDS011;58504;48.770;9.148;2023-04-16T10:04:45;0.70;;;0.70;;
62588;SDS011;58504;48.770;9.148;2023-04-16T10:07:12;0.70;;;0.70;;
62588;SDS011;58504;48.770;9.148;2023-04-16T10:09:39;0.80;;;0.80;;
62588;SDS011;58504;48.770;9.148;2023-04-16T10:12:08;0.75;;;0.75;;
62588;SDS011;58504;48.770;9.148;2023-04-16T10:14:37;0.80;;;0.80;;
62588;SDS011;58504;48.770;9.148;2023-04-16T10:17:03;1.00;;;1.00;;
62588;SDS011;58504;48.770;9.148;2023-04-16T10:19:31;0.73;;;0.73;;
62588;SDS011;58504;48.770;9.148;2023-04-16T10:21:58;1.15;;;0.70;;
62588;SDS011;58504;48.770;9.148;2023-04-16T10:24:25;0.80;;;0.80;;
62588;SDS011;58504;48.770;9.148;2023-04-16T10:26:52;0.65;;;0.65;;
62588;SDS011;58504;48.770;9.148;2023-04-16T10:29:21;0.60;;;0.60;;
62588;SDS011;58504;48.770;9.148;2023-04-16T10:31:48;0.70;;;0.70;;
62588;SDS011;58504;48.770;9.148;2023-04-16T10:34:16;0.95;;;0.95;;
62588;SDS011;58504;48.770;9.148;2023-04-16T10:36:46;0.85;;;0.85;;
62588;SDS011;58504;48.770;9.148;2023-04-16T10:39:16;0.85;;;0.85;;
62588;SDS011;58504;48.770;9.148;2023-04-16T10:41:45;0.90;;;0.90;;
62588;SDS011;58504;48.770;9.148;2023-04-16T10:44:12;1.25;;;1.17;;
62588;SDS011;58504;48.770;9.148;2023-04-16T10:46:43;0.95;;;0.90;;
62588;SDS011;58504;48.770;9.148;2023-04-16T10:49:13;1.15;;;1.08;;
62588;SDS011;58504;48.770;9.148;2023-04-16T10:51:41;0.93;;;0.93;;
62588;SDS011;58504;48.770;9.148;2023-04-16T10:54:19;0.77;;;0.77;;
62588;SDS011;58504;48.770;9.148;2023-04-16T10:56:48;1.10;;;1.10;;
62588;SDS011;58504;48.770;9.148;2023-04-16T10:59:16;1.15;;;1.15;;
62588;SDS011;58504;48.770;9.148;2023-04-16T11:01:46;0.95;;;0.95;;
62588;SDS011;58504;48.770;9.148;2023-04-16T11:04:28;1.10;;;1.10;;
62588;SDS011;58504;48.770;9.148;2023-04-16T11:07:01;0.88;;;0.88;;
62588;SDS011;58504;48.770;9.148;2023-04-16T11:09:45;0.80;;;0.80;;
62588;SDS011;58504;48.770;9.148;2023-04-16T11:12:21;1.00;;;1.00;;
62588;SDS011;58504;48.770;9.148;2023-04-16T11:14:51;3.70;;;1.00;;
62588;SDS011;58504;48.770;9.148;2023-04-16T11:17:20;0.90;;;0.90;;
62588;SDS011;58504;48.770;9.148;2023-04-16T11:19:47;1.30;;;1.20;;
62588;SDS011;58504;48.770;9.148;2023-04-16T11:22:15;1.33;;;1.23;;
62588;SDS011;58504;48.770;9.148;2023-04-16T11:24:43;3.38;;;1.95;;
62588;SDS011;58504;48.770;9.148;2023-04-16T11:27:11;2.65;;;1.00;;
62588;SDS011;58504;48.770;9.148;2023-04-16T11:29:39;2.88;;;1.08;;
62588;SDS011;58504;48.770;9.148;2023-04-16T11:32:06;4.18;;;1.25;;
62588;SDS011;58504;48.770;9.148;2023-04-16T11:34:35;1.02;;;1.00;;
62588;SDS011;58504;48.770;9.148;2023-04-16T11:37:09;1.42;;;1.33;;
62588;SDS011;58504;48.770;9.148;2023-04-16T11:39:48;1.10;;;1.00;;
62588;SDS011;58504;48.770;9.148;2023-04-16T11:42:19;1.42;;;0.90;;
62588;SDS011;58504;48.770;9.148;2023-04-16T11:44:51;2.75;;;1.25;;
62588;SDS011;58504;48.770;9.148;2023-04-16T11:47:19;3.60;;;1.20;;
62588;SDS011;58504;48.770;9.148;2023-04-16T11:49:47;1.40;;;1.00;;
62588;SDS011;58504;48.770;9.148;2023-04-16T11:52:14;1.13;;;0.98;;
62588;SDS011;58504;48.770;9.148;2023-04-16T11:54:51;1.27;;;0.98;;
62588;SDS011;58504;48.770;9.148;2023-04-16T11:57:22;1.25;;;1.20;;
62588;SDS011;58504;48.770;9.148;2023-04-16T11:59:50;2.75;;;1.15;;
62588;SDS011;58504;48.770;9.148;2023-04-16T12:02:16;3.80;;;0.98;;
62588;SDS011;58504;48.770;9.148;2023-04-16T12:04:43;1.10;;;1.00;;
62588;SDS011;58504;48.770;9.148;2023-04-16T12:07:12;1.00;;;1.00;;
62588;SDS011;58504;48.770;9.148;2023-04-16T12:09:39;0.70;;;0.70;;
62588;SDS011;58504;48.770;9.148;2023-04-16T12:14:52;2.38;;;1.38;;
62588;SDS011;58504;48.770;9.148;2023-04-16T12:17:20;1.38;;;0.90;;
62588;SDS011;58504;48.770;9.148;2023-04-16T12:19:48;1.23;;;0.98;;
62588;SDS011;58504;48.770;9.148;2023-04-16T12:22:17;5.65;;;1.33;;
62588;SDS011;58504;48.770;9.148;2023-04-16T12:24:54;2.42;;;0.95;;
62588;SDS011;58504;48.770;9.148;2023-04-16T12:27:22;1.00;;;1.00;;
62588;SDS011;58504;48.770;9.148;2023-04-16T12:30:01;1.05;;;0.90;;
62588;SDS011;58504;48.770;9.148;2023-04-16T12:32:29;2.88;;;1.00;;
62588;SDS011;58504;48.770;9.148;2023-04-16T12:34:56;3.00;;;0.82;;
62588;SDS011;58504;48.770;9.148;2023-04-16T12:37:24;3.88;;;1.08;;
62588;SDS011;58504;48.770;9.148;2023-04-16T12:39:51;1.25;;;0.90;;
62588;SDS011;58504;48.770;9.148;2023-04-16T12:42:17;4.13;;;0.93;;
62588;SDS011;58504;48.770;9.148;2023-04-16T12:44:45;4.68;;;0.93;;
62588;SDS011;58504;48.770;9.148;2023-04-16T12:47:11;2.13;;;1.38;;
62588;SDS011;58504;48.770;9.148;2023-04-16T12:49:38;7.32;;;1.70;;
62588;SDS011;58504;48.770;9.148;2023-04-16T12:52:05;1.98;;;1.30;;
62588;SDS011;58504;48.770;9.148;2023-04-16T12:54:33;3.15;;;1.40;;
62588;SDS011;58504;48.770;9.148;2023-04-16T12:57:00;1.23;;;1.10;;
62588;SDS011;58504;48.770;9.148;2023-04-16T12:59:27;2.60;;;1.10;;
62588;SDS011;58504;48.770;9.148;2023-04-16T13:01:54;3.05;;;1.10;;
62588;SDS011;58504;48.770;9.148;2023-04-16T13:04:21;1.38;;;1.27;;
62588;SDS011;58504;48.770;9.148;2023-04-16T13:06:47;1.02;;;1.02;;
62588;SDS011;58504;48.770;9.148;2023-04-16T13:09:14;4.07;;;1.20;;
62588;SDS011;58504;48.770;9.148;2023-04-16T13:11:43;0.88;;;0.88;;
62588;SDS011;58504;48.770;9.148;2023-04-16T13:14:10;1.23;;;1.00;;
62588;SDS011;58504;48.770;9.148;2023-04-16T13:16:36;1.05;;;1.00;;
62588;SDS011;58504;48.770;9.148;2023-04-16T13:19:03;1.90;;;0.80;;
62588;SDS011;58504;48.770;9.148;2023-04-16T13:21:30;1.00;;;0.82;;
62588;SDS011;58504;48.770;9.148;2023-04-16T13:23:57;2.92;;;1.23;;
62588;SDS011;58504;48.770;9.148;2023-04-16T13:26:24;5.05;;;1.67;;
62588;SDS011;58504;48.770;9.148;2023-04-16T13:28:52;3.03;;;1.08;;
62588;SDS011;58504;48.770;9.148;2023-04-16T13:31:19;1.13;;;0.75;;
62588;SDS011;58504;48.770;9.148;2023-04-16T13:33:46;1.90;;;1.00;;
62588;SDS011;58504;48.770;9.148;2023-04-16T13:36:13;0.98;;;0.85;;
62588;SDS011;58504;48.770;9.148;2023-04-16T13:38:40;2.50;;;0.77;;
62588;SDS011;58504;48.770;9.148;2023-04-16T13:41:07;0.80;;;0.80;;
62588;SDS011;58504;48.770;9.148;2023-04-16T13:43:33;1.65;;;1.02;;
62588;SDS011;58504;48.770;9.148;2023-04-16T13:46:02;1.10;;;0.95;;
62588;SDS011;58504;48.770;9.148;2023-04-16T13:48:28;0.80;;;0.80;;
62588;SDS011;58504;48.770;9.148;2023-04-16T13:50:55;1.15;;;1.05;;
62588;SDS011;58504;48.770;9.148;2023-04-16T13:53:22;0.70;;;0.70;;
62588;SDS011;58504;48.770;9.148;2023-04-16T13:55:49;0.85;;;0.85;;
62588;SDS011;58504;48.770;9.148;2023-04-16T13:58:15;2.00;;;1.05;;
62588;SDS011;58504;48.770;9.148;2023-04-16T14:00:42;3.05;;;0.70;;
62588;SDS011;58504;48.770;9.148;2023-04-16T14:03:10;1.00;;;1.00;;
62588;SDS011;58504;48.770;9.148;2023-04-16T14:05:37;1.15;;;0.70;;
62588;SDS011;58504;48.770;9.148;2023-04-16T14:08:05;2.45;;;0.88;;
62588;SDS011;58504;48.770;9.148;2023-04-16T14:10:32;2.17;;;0.75;;
62588;SDS011;58504;48.770;9.148;2023-04-16T14:12:59;0.82;;;0.82;;
62588;SDS011;58504;48.770;9.148;2023-04-16T14:15:26;0.77;;;0.77;;
62588;SDS011;58504;48.770;9.148;2023-04-16T14:17:54;0.90;;;0.90;;
62588;SDS011;58504;48.770;9.148;2023-04-16T14:20:22;1.10;;;1.10;;
62588;SDS011;58504;48.770;9.148;2023-04-16T14:22:49;0.60;;;0.60;;
62588;SDS011;58504;48.770;9.148;2023-04-16T14:25:16;0.95;;;0.95;;
62588;SDS011;58504;48.770;9.148;2023-04-16T14:27:43;1.10;;;1.00;;
62588;SDS011;58504;48.770;9.148;2023-04-16T14:30:10;1.00;;;0.80;;
62588;SDS011;58504;48.770;9.148;2023-04-16T14:32:37;1.05;;;1.02;;
62588;SDS011;58504;48.770;9.148;2023-04-16T14:35:04;0.80;;;0.80;;
62588;SDS011;58504;48.770;9.148;2023-04-16T14:37:33;3.25;;;1.38;;
62588;SDS011;58504;48.770;9.148;2023-04-16T14:40:01;1.15;;;1.10;;
62588;SDS011;58504;48.770;9.148;2023-04-16T14:42:29;0.90;;;0.90;;
62588;SDS011;58504;48.770;9.148;2023-04-16T14:44:55;2.42;;;1.05;;
62588;SDS011;58504;48.770;9.148;2023-04-16T14:47:22;1.00;;;0.82;;
62588;SDS011;58504;48.770;9.148;2023-04-16T14:49:49;0.80;;;0.80;;
62588;SDS011;58504;48.770;9.148;2023-04-16T14:52:16;1.00;;;1.00;;